Time,TemperatureF,DewpointF,PressureIn,WindDirection,WindDirectionDegrees,WindSpeedMPH,WindSpeedGustMPH,Humidity,HourlyPrecipIn,Conditions,Clouds,dailyrainin,SolarRadiationWatts/m^2,SoftwareType,DateUTC
2013-11-27 00:02:00,7.0,3.0,-100.00,NW,316,5.0,9.0,83,0.00,,,0.00,0.000000,,2013-11-27 06:02:00,
2013-11-27 00:11:00,7.0,3.0,-100.00,NW,319,7.0,9.0,82,0.00,,,0.00,0.000000,,2013-11-27 06:11:00,
2013-11-27 00:42:00,7.0,3.0,-100.00,NW,319,7.0,9.0,82,0.00,,,0.00,0.000000,,2013-11-27 06:42:00,
2013-11-27 00:52:00,7.0,3.0,-100.00,NW,319,7.0,9.0,82,0.00,,,0.00,0.000000,,2013-11-27 06:52:00,
2013-11-27 01:02:00,7.0,3.0,-100.00,NW,319,7.0,9.0,82,0.00,,,0.00,0.000000,,2013-11-27 07:02:00,
2013-11-27 01:11:00,6.0,2.0,-100.00,NW,309,6.0,7.0,84,0.00,,,0.00,0.000000,,2013-11-27 07:11:00,
2013-11-27 01:42:00,6.0,2.0,-100.00,NW,309,6.0,7.0,84,0.00,,,0.00,0.000000,,2013-11-27 07:42:00,
2013-11-27 01:52:00,6.0,2.0,-100.00,NW,309,6.0,7.0,84,0.00,,,0.00,0.000000,,2013-11-27 07:52:00,
2013-11-27 02:02:00,6.0,2.0,-100.00,NW,309,6.0,7.0,84,0.00,,,0.00,0.000000,,2013-11-27 08:02:00,
2013-11-27 02:11:00,5.0,2.0,-100.00,NW,305,6.0,7.0,85,0.00,,,0.00,0.000000,,2013-11-27 08:11:00,
2013-11-27 02:43:00,5.0,2.0,-100.00,NW,305,6.0,7.0,85,0.00,,,0.00,0.000000,,2013-11-27 08:43:00,
2013-11-27 02:53:00,5.0,2.0,-100.00,NW,305,6.0,7.0,85,0.00,,,0.00,0.000000,,2013-11-27 08:53:00,
2013-11-27 03:02:00,5.0,2.0,-100.00,NW,305,6.0,7.0,85,0.00,,,0.00,0.000000,,2013-11-27 09:02:00,
2013-11-27 03:11:00,5.0,2.0,-100.00,WNW,300,4.0,6.0,87,0.00,,,0.00,0.000000,,2013-11-27 09:11:00,
2013-11-27 03:43:00,5.0,2.0,-100.00,WNW,300,4.0,6.0,87,0.00,,,0.00,0.000000,,2013-11-27 09:43:00,
2013-11-27 03:54:00,5.0,2.0,-100.00,WNW,300,4.0,6.0,87,0.00,,,0.00,0.000000,,2013-11-27 09:54:00,
2013-11-27 04:03:00,5.0,2.0,-100.00,WNW,300,4.0,6.0,87,0.00,,,0.00,0.000000,,2013-11-27 10:03:00,
2013-11-27 04:11:00,4.0,1.0,-100.00,WNW,295,4.0,6.0,86,0.00,,,0.00,0.000000,,2013-11-27 10:11:00,
2013-11-27 04:42:00,4.0,1.0,-100.00,WNW,295,4.0,6.0,86,0.00,,,0.00,0.000000,,2013-11-27 10:42:00,
2013-11-27 04:53:00,4.0,1.0,-100.00,WNW,295,4.0,6.0,86,0.00,,,0.00,0.000000,,2013-11-27 10:53:00,
2013-11-27 05:02:00,4.0,1.0,-100.00,WNW,295,4.0,6.0,86,0.00,,,0.00,0.000000,,2013-11-27 11:02:00,
2013-11-27 05:11:00,5.0,2.0,-100.00,West,274,4.0,5.0,86,0.00,,,0.00,0.000000,,2013-11-27 11:11:00,
2013-11-27 05:42:00,5.0,2.0,-100.00,West,274,4.0,5.0,86,0.00,,,0.00,0.000000,,2013-11-27 11:42:00,
2013-11-27 05:53:00,5.0,2.0,-100.00,West,274,4.0,5.0,86,0.00,,,0.00,0.000000,,2013-11-27 11:53:00,
2013-11-27 06:02:00,5.0,2.0,-100.00,West,274,4.0,5.0,86,0.00,,,0.00,0.000000,,2013-11-27 12:02:00,
2013-11-27 06:11:00,3.0,0.0,-100.00,West,271,2.0,5.0,86,0.00,,,0.00,0.000000,,2013-11-27 12:11:00,
2013-11-27 06:42:00,3.0,0.0,-100.00,West,271,2.0,5.0,86,0.00,,,0.00,0.000000,,2013-11-27 12:42:00,
2013-11-27 06:52:00,3.0,0.0,-100.00,West,271,2.0,5.0,86,0.00,,,0.00,0.000000,,2013-11-27 12:52:00,
2013-11-27 07:03:00,3.0,0.0,-100.00,West,271,2.0,5.0,86,0.00,,,0.00,0.000000,,2013-11-27 13:03:00,
2013-11-27 07:11:00,2.0,-1.0,-100.00,South,181,1.0,4.0,85,0.00,,,0.00,0.000000,,2013-11-27 13:11:00,
2013-11-27 07:42:00,2.0,-1.0,-100.00,South,181,1.0,4.0,85,0.00,,,0.00,0.000000,,2013-11-27 13:42:00,
2013-11-27 07:52:00,2.0,-1.0,-100.00,South,181,1.0,4.0,85,0.00,,,0.00,0.000000,,2013-11-27 13:52:00,
2013-11-27 08:02:00,2.0,-1.0,-100.00,South,181,1.0,4.0,85,0.00,,,0.00,0.000000,,2013-11-27 14:02:00,
2013-11-27 08:11:00,5.0,2.0,-100.00,South,170,1.0,2.0,87,0.00,,,0.00,44.000000,,2013-11-27 14:11:00,
2013-11-27 08:42:00,5.0,2.0,-100.00,South,170,1.0,2.0,87,0.00,,,0.00,44.000000,,2013-11-27 14:42:00,
2013-11-27 08:53:00,5.0,2.0,-100.00,South,170,1.0,2.0,87,0.00,,,0.00,44.000000,,2013-11-27 14:53:00,
2013-11-27 09:02:00,5.0,2.0,-100.00,South,170,1.0,2.0,87,0.00,,,0.00,44.000000,,2013-11-27 15:02:00,
2013-11-27 09:11:00,13.0,8.0,-100.00,SE,138,5.0,8.0,81,0.00,,,0.00,214.000000,,2013-11-27 15:11:00,
2013-11-27 09:44:00,13.0,8.0,-100.00,SE,138,5.0,8.0,81,0.00,,,0.00,214.000000,,2013-11-27 15:44:00,
2013-11-27 09:53:00,13.0,8.0,-100.00,SE,138,5.0,8.0,81,0.00,,,0.00,214.000000,,2013-11-27 15:53:00,
2013-11-27 10:04:00,13.0,8.0,-100.00,SE,138,5.0,8.0,81,0.00,,,0.00,214.000000,,2013-11-27 16:04:00,
2013-11-27 10:11:00,14.0,8.0,-100.00,SE,144,8.0,11.0,76,0.00,,,0.00,243.000000,,2013-11-27 16:11:00,
2013-11-27 10:43:00,14.0,8.0,-100.00,SE,144,8.0,11.0,76,0.00,,,0.00,243.000000,,2013-11-27 16:43:00,
2013-11-27 10:53:00,14.0,8.0,-100.00,SE,144,8.0,11.0,76,0.00,,,0.00,243.000000,,2013-11-27 16:53:00,
2013-11-27 11:02:00,14.0,8.0,-100.00,SE,144,8.0,11.0,76,0.00,,,0.00,243.000000,,2013-11-27 17:02:00,
2013-11-27 11:11:00,17.0,8.0,-100.00,SSE,160,8.0,14.0,68,0.00,,,0.00,360.000000,,2013-11-27 17:11:00,
2013-11-27 11:42:00,17.0,8.0,-100.00,SSE,160,8.0,14.0,68,0.00,,,0.00,360.000000,,2013-11-27 17:42:00,
2013-11-27 11:52:00,17.0,8.0,-100.00,SSE,160,8.0,14.0,68,0.00,,,0.00,360.000000,,2013-11-27 17:52:00,
2013-11-27 12:02:00,17.0,8.0,-100.00,SSE,160,8.0,14.0,68,0.00,,,0.00,360.000000,,2013-11-27 18:02:00,
2013-11-27 12:11:00,18.0,8.0,-100.00,SE,143,9.0,14.0,63,0.00,,,0.00,262.000000,,2013-11-27 18:11:00,
2013-11-27 12:43:00,18.0,8.0,-100.00,SE,143,9.0,14.0,63,0.00,,,0.00,262.000000,,2013-11-27 18:43:00,
2013-11-27 12:52:00,18.0,8.0,-100.00,SE,143,9.0,14.0,63,0.00,,,0.00,262.000000,,2013-11-27 18:52:00,
2013-11-27 13:02:00,18.0,8.0,-100.00,SE,143,9.0,14.0,63,0.00,,,0.00,262.000000,,2013-11-27 19:02:00,
2013-11-27 13:11:00,19.0,8.0,-100.00,SSE,147,11.0,15.0,61,0.00,,,0.00,208.000000,,2013-11-27 19:11:00,
2013-11-27 13:42:00,19.0,8.0,-100.00,SSE,147,11.0,15.0,61,0.00,,,0.00,208.000000,,2013-11-27 19:42:00,
2013-11-27 13:52:00,19.0,8.0,-100.00,SSE,147,11.0,15.0,61,0.00,,,0.00,208.000000,,2013-11-27 19:52:00,
2013-11-27 14:02:00,19.0,8.0,-100.00,SSE,147,11.0,15.0,61,0.00,,,0.00,208.000000,,2013-11-27 20:02:00,
2013-11-27 14:11:00,21.0,7.0,-100.00,SE,143,13.0,17.0,54,0.00,,,0.00,223.000000,,2013-11-27 20:11:00,
2013-11-27 14:42:00,21.0,7.0,-100.00,SE,143,13.0,17.0,54,0.00,,,0.00,223.000000,,2013-11-27 20:42:00,
2013-11-27 14:53:00,21.0,7.0,-100.00,SE,143,13.0,17.0,54,0.00,,,0.00,223.000000,,2013-11-27 20:53:00,
2013-11-27 15:02:00,21.0,7.0,-100.00,SE,143,13.0,17.0,54,0.00,,,0.00,223.000000,,2013-11-27 21:02:00,
2013-11-27 15:11:00,23.0,7.0,-100.00,SE,141,16.0,23.0,49,0.00,,,0.00,335.000000,,2013-11-27 21:11:00,
2013-11-27 15:43:00,23.0,7.0,-100.00,SE,141,16.0,23.0,49,0.00,,,0.00,335.000000,,2013-11-27 21:43:00,
2013-11-27 15:53:00,23.0,7.0,-100.00,SE,141,16.0,23.0,49,0.00,,,0.00,335.000000,,2013-11-27 21:53:00,
2013-11-27 16:03:00,23.0,7.0,-100.00,SE,141,16.0,23.0,49,0.00,,,0.00,335.000000,,2013-11-27 22:03:00,
2013-11-27 16:11:00,21.0,5.0,-100.00,SE,144,14.0,22.0,50,0.00,,,0.00,124.000000,,2013-11-27 22:11:00,
2013-11-27 16:43:00,21.0,5.0,-100.00,SE,144,14.0,22.0,50,0.00,,,0.00,124.000000,,2013-11-27 22:43:00,
2013-11-27 16:52:00,21.0,5.0,-100.00,SE,144,14.0,22.0,50,0.00,,,0.00,124.000000,,2013-11-27 22:52:00,
2013-11-27 17:02:00,21.0,5.0,-100.00,SE,144,14.0,22.0,50,0.00,,,0.00,124.000000,,2013-11-27 23:02:00,
2013-11-27 17:11:00,20.0,5.0,-100.00,SE,143,11.0,20.0,52,0.00,,,0.00,11.000000,,2013-11-27 23:11:00,
2013-11-27 17:43:00,20.0,5.0,-100.00,SE,143,11.0,20.0,52,0.00,,,0.00,11.000000,,2013-11-27 23:43:00,
2013-11-27 17:53:00,20.0,5.0,-100.00,SE,143,11.0,20.0,52,0.00,,,0.00,11.000000,,2013-11-27 23:53:00,
2013-11-27 18:02:00,20.0,5.0,-100.00,SE,143,11.0,20.0,52,0.00,,,0.00,11.000000,,2013-11-28 00:02:00,
2013-11-27 18:11:00,20.0,6.0,-100.00,SE,140,9.0,14.0,54,0.00,,,0.00,0.000000,,2013-11-28 00:11:00,
2013-11-27 18:42:00,20.0,6.0,-100.00,SE,140,9.0,14.0,54,0.00,,,0.00,0.000000,,2013-11-28 00:42:00,
2013-11-27 18:52:00,20.0,6.0,-100.00,SE,140,9.0,14.0,54,0.00,,,0.00,0.000000,,2013-11-28 00:52:00,
2013-11-27 19:01:00,20.0,6.0,-100.00,SE,140,9.0,14.0,54,0.00,,,0.00,0.000000,,2013-11-28 01:01:00,
2013-11-27 19:11:00,18.0,6.0,-100.00,ESE,120,6.0,12.0,58,0.00,,,0.00,0.000000,,2013-11-28 01:11:00,
2013-11-27 19:42:00,18.0,6.0,-100.00,ESE,120,6.0,12.0,58,0.00,,,0.00,0.000000,,2013-11-28 01:42:00,
2013-11-27 19:52:00,18.0,6.0,-100.00,ESE,120,6.0,12.0,58,0.00,,,0.00,0.000000,,2013-11-28 01:52:00,
2013-11-27 20:02:00,18.0,6.0,-100.00,ESE,120,6.0,12.0,58,0.00,,,0.00,0.000000,,2013-11-28 02:02:00,
2013-11-27 20:11:00,20.0,6.0,-100.00,ESE,122,9.0,12.0,55,0.00,,,0.00,0.000000,,2013-11-28 02:11:00,
2013-11-27 20:52:00,20.0,6.0,-100.00,ESE,122,9.0,12.0,55,0.00,,,0.00,0.000000,,2013-11-28 02:52:00,
2013-11-27 21:02:00,20.0,6.0,-100.00,ESE,122,9.0,12.0,55,0.00,,,0.00,0.000000,,2013-11-28 03:02:00,
2013-11-27 21:11:00,21.0,8.0,-100.00,SE,131,8.0,14.0,56,0.00,,,0.00,0.000000,,2013-11-28 03:11:00,
2013-11-27 21:44:00,21.0,8.0,-100.00,SE,131,8.0,14.0,56,0.00,,,0.00,0.000000,,2013-11-28 03:44:00,
2013-11-27 21:53:00,21.0,8.0,-100.00,SE,131,8.0,14.0,56,0.00,,,0.00,0.000000,,2013-11-28 03:53:00,
2013-11-27 22:04:00,21.0,8.0,-100.00,SE,131,8.0,14.0,56,0.00,,,0.00,0.000000,,2013-11-28 04:04:00,
2013-11-27 22:11:00,21.0,8.0,-100.00,SE,146,11.0,15.0,57,0.00,,,0.00,0.000000,,2013-11-28 04:11:00,
2013-11-27 22:43:00,21.0,8.0,-100.00,SE,146,11.0,15.0,57,0.00,,,0.00,0.000000,,2013-11-28 04:43:00,
2013-11-27 22:52:00,21.0,8.0,-100.00,SE,146,11.0,15.0,57,0.00,,,0.00,0.000000,,2013-11-28 04:52:00,
2013-11-27 23:02:00,21.0,8.0,-100.00,SE,146,11.0,15.0,57,0.00,,,0.00,0.000000,,2013-11-28 05:02:00,
2013-11-27 23:11:00,21.0,9.0,-100.00,SE,142,9.0,14.0,60,0.00,,,0.00,0.000000,,2013-11-28 05:11:00,
2013-11-27 23:43:00,21.0,9.0,-100.00,SE,142,9.0,14.0,60,0.00,,,0.00,0.000000,,2013-11-28 05:43:00,
2013-11-27 23:53:00,21.0,9.0,-100.00,SE,142,9.0,14.0,60,0.00,,,0.00,0.000000,,2013-11-28 05:53:00,